createdAt,value
2019-03-25T00:01:47.081Z,12.57
2019-03-25T00:04:14.961Z,9.60
2019-03-25T00:06:42.819Z,8.03
2019-03-25T00:09:10.774Z,13.80
2019-03-25T00:11:38.577Z,7.97
2019-03-25T00:14:06.419Z,12.57
2019-03-25T00:16:34.331Z,13.43
2019-03-25T00:19:02.263Z,10.97
2019-03-25T00:21:30.128Z,9.77
2019-03-25T00:23:58.125Z,10.83
2019-03-25T00:26:25.957Z,10.17
2019-03-25T00:28:53.859Z,14.00
2019-03-25T00:31:21.684Z,11.37
2019-03-25T00:33:49.644Z,9.57
2019-03-25T00:36:17.592Z,11.77
2019-03-25T00:38:45.443Z,14.67
2019-03-25T00:41:13.360Z,10.83
2019-03-25T00:43:41.330Z,15.60
2019-03-25T00:46:09.155Z,13.60
2019-03-25T00:48:37.043Z,17.13
2019-03-25T00:51:04.956Z,15.93
2019-03-25T00:53:32.873Z,9.53
2019-03-25T00:56:00.684Z,12.73
2019-03-25T00:58:28.484Z,12.40
2019-03-25T01:00:56.502Z,13.50
2019-03-25T01:03:24.327Z,17.30
2019-03-25T01:05:52.280Z,10.43
2019-03-25T01:08:20.298Z,16.63
2019-03-25T01:10:48.194Z,14.53
2019-03-25T01:13:16.025Z,12.47
2019-03-25T01:15:43.892Z,12.73
2019-03-25T01:18:16.742Z,10.37
2019-03-25T01:20:41.472Z,9.37
2019-03-25T01:23:09.324Z,12.97
2019-03-25T01:25:37.337Z,12.67
2019-03-25T01:28:05.191Z,10.40
2019-03-25T01:30:33.116Z,10.90
2019-03-25T01:33:01.066Z,12.70
2019-03-25T01:35:28.900Z,9.40
2019-03-25T01:37:56.869Z,9.30
2019-03-25T01:40:24.793Z,10.77
2019-03-25T01:42:52.754Z,10.23
2019-03-25T01:45:20.779Z,13.47
2019-03-25T01:47:48.647Z,9.23
2019-03-25T01:50:16.527Z,11.10
2019-03-25T01:52:44.418Z,11.37
2019-03-25T01:55:13.750Z,8.73
2019-03-25T01:57:41.891Z,10.53
2019-03-25T02:00:10.472Z,16.27
2019-03-25T02:02:38.451Z,16.87
2019-03-25T02:05:06.402Z,11.50
2019-03-25T02:07:34.335Z,11.07
2019-03-25T02:10:02.311Z,11.67
2019-03-25T02:12:30.312Z,8.90
2019-03-25T02:14:58.153Z,11.10
2019-03-25T02:17:26.035Z,9.67
2019-03-25T02:19:54.009Z,11.03
2019-03-25T02:22:21.916Z,15.27
2019-03-25T02:24:49.874Z,8.73
2019-03-25T02:27:17.824Z,11.30
2019-03-25T02:29:45.695Z,15.43
2019-03-25T02:32:13.568Z,8.83
2019-03-25T02:34:41.480Z,11.97
2019-03-25T02:37:09.353Z,11.93
2019-03-25T02:39:37.290Z,19.47
2019-03-25T02:42:05.191Z,12.20
2019-03-25T02:44:33.148Z,11.43
2019-03-25T02:47:00.993Z,11.00
2019-03-25T02:49:28.850Z,12.50
2019-03-25T02:51:56.678Z,11.63
2019-03-25T02:54:24.669Z,16.93
2019-03-25T02:56:52.491Z,17.43
2019-03-25T02:59:20.397Z,11.40
2019-03-25T03:01:48.352Z,14.50
2019-03-25T03:04:16.305Z,14.20
2019-03-25T03:06:44.185Z,11.47
2019-03-25T03:09:12.142Z,13.10
2019-03-25T03:11:40.099Z,13.70
2019-03-25T03:14:08.062Z,9.90
2019-03-25T03:16:35.985Z,12.43
2019-03-25T03:19:03.867Z,10.47
2019-03-25T03:21:31.826Z,13.23
2019-03-25T03:23:59.786Z,12.37
2019-03-25T03:26:27.735Z,15.60
2019-03-25T03:28:55.633Z,12.57
2019-03-25T03:31:23.576Z,12.00
2019-03-25T03:33:51.488Z,12.07
2019-03-25T03:36:19.361Z,12.27
2019-03-25T03:38:48.289Z,13.17
2019-03-25T03:41:16.227Z,13.50
2019-03-25T03:43:44.143Z,12.50
2019-03-25T03:46:12.019Z,14.03
2019-03-25T03:48:40.049Z,11.30
2019-03-25T03:51:07.983Z,12.17
2019-03-25T03:53:36.231Z,15.03
2019-03-25T03:56:12.622Z,11.23
2019-03-25T03:58:34.442Z,11.87
2019-03-25T04:01:02.469Z,15.63
2019-03-25T04:03:30.509Z,13.17
2019-03-25T04:05:58.866Z,16.00
2019-03-25T04:08:26.773Z,16.53
2019-03-25T04:10:54.719Z,18.90
2019-03-25T04:13:22.684Z,13.07
2019-03-25T04:15:50.547Z,11.70
2019-03-25T04:18:18.532Z,15.70
2019-03-25T04:20:46.451Z,16.90
2019-03-25T04:23:14.299Z,14.80
2019-03-25T04:25:42.227Z,17.30
2019-03-25T04:28:10.250Z,18.90
2019-03-25T04:30:38.198Z,13.70
2019-03-25T04:33:06.231Z,15.53
2019-03-25T04:35:34.170Z,12.77
2019-03-25T04:38:02.025Z,16.63
2019-03-25T04:40:29.988Z,19.77
2019-03-25T04:42:58.705Z,17.70
2019-03-25T04:45:26.546Z,20.67
2019-03-25T04:47:54.485Z,19.13
2019-03-25T04:50:22.320Z,19.77
2019-03-25T04:52:50.176Z,17.77
2019-03-25T04:55:18.050Z,15.87
2019-03-25T04:57:45.988Z,15.90
2019-03-25T05:00:14.121Z,16.57
2019-03-25T05:02:41.920Z,14.00
2019-03-25T05:05:11.130Z,16.87
2019-03-25T05:07:39.066Z,15.27
2019-03-25T05:10:07.458Z,18.17
2019-03-25T05:12:35.444Z,15.27
2019-03-25T05:15:03.880Z,15.47
2019-03-25T05:17:31.870Z,11.63
2019-03-25T05:19:59.782Z,11.30
2019-03-25T05:22:27.733Z,11.50
2019-03-25T05:24:55.623Z,10.13
2019-03-25T05:27:23.436Z,10.03
2019-03-25T05:29:51.264Z,10.63
2019-03-25T05:32:19.122Z,10.43
2019-03-25T05:34:47.022Z,10.60
2019-03-25T05:37:15.025Z,10.27
2019-03-25T05:39:43.012Z,10.83
2019-03-25T05:42:10.956Z,8.73
2019-03-25T05:44:38.812Z,8.83
2019-03-25T05:47:06.756Z,9.77
2019-03-25T05:49:34.707Z,8.67
2019-03-25T05:52:02.761Z,10.20
2019-03-25T05:54:30.791Z,8.80
2019-03-25T05:57:02.659Z,8.93
2019-03-25T05:59:28.696Z,11.43
2019-03-25T06:01:56.554Z,7.97
2019-03-25T06:04:24.559Z,12.07
2019-03-25T06:06:52.489Z,7.90
2019-03-25T06:09:20.500Z,7.67
2019-03-25T06:11:48.425Z,10.17
2019-03-25T06:14:16.494Z,8.43
2019-03-25T06:16:44.483Z,8.77
2019-03-25T06:19:12.497Z,10.53
2019-03-25T06:21:40.472Z,7.80
2019-03-25T06:24:08.777Z,8.27
2019-03-25T06:26:36.888Z,7.73
2019-03-25T06:29:04.796Z,7.80
2019-03-25T06:31:33.879Z,5.97
2019-03-25T06:34:01.845Z,6.23
2019-03-25T06:36:29.670Z,8.60
2019-03-25T06:38:57.619Z,10.90
2019-03-25T06:41:25.704Z,6.83
2019-03-25T06:43:53.773Z,8.03
2019-03-25T06:46:22.358Z,8.77
2019-03-25T06:48:50.814Z,7.40
2019-03-25T06:51:19.055Z,12.50
2019-03-25T06:53:47.233Z,5.03
2019-03-25T06:56:15.303Z,6.60
2019-03-25T06:58:43.375Z,9.60
2019-03-25T07:01:11.501Z,5.70
2019-03-25T07:03:39.908Z,8.30
2019-03-25T07:06:08.053Z,5.20
2019-03-25T07:08:36.547Z,6.40
2019-03-25T07:11:04.994Z,6.50
2019-03-25T07:13:33.425Z,8.30
2019-03-25T07:16:01.619Z,6.97
2019-03-25T07:18:29.756Z,5.40
2019-03-25T07:20:57.853Z,5.67
2019-03-25T07:23:26.016Z,4.53
2019-03-25T07:25:54.106Z,8.53
2019-03-25T07:28:22.149Z,6.40
2019-03-25T07:30:50.302Z,7.97
2019-03-25T07:33:18.506Z,9.77
2019-03-25T07:35:46.699Z,13.47
2019-03-25T07:38:14.793Z,7.03
2019-03-25T07:40:42.939Z,6.47
2019-03-25T07:43:13.664Z,20.13
2019-03-25T07:45:41.757Z,11.50
2019-03-25T07:48:09.761Z,9.40
2019-03-25T07:50:37.926Z,6.63
2019-03-25T07:53:06.089Z,11.97
2019-03-25T07:55:34.132Z,10.53
2019-03-25T07:58:04.629Z,13.07
2019-03-25T08:00:32.783Z,21.37
2019-03-25T08:03:00.862Z,8.67
2019-03-25T08:05:29.003Z,11.97
2019-03-25T08:07:57.372Z,11.17
2019-03-25T08:10:35.043Z,8.80
2019-03-25T08:13:03.292Z,8.63
2019-03-25T08:15:33.886Z,13.03
2019-03-25T08:18:03.242Z,15.10
2019-03-25T08:20:31.370Z,7.33
2019-03-25T08:23:02.317Z,13.30
2019-03-25T08:25:30.514Z,9.53
2019-03-25T08:28:00.346Z,8.80
2019-03-25T08:30:28.463Z,14.57
2019-03-25T08:32:56.469Z,9.17
2019-03-25T08:35:24.637Z,17.67
2019-03-25T08:37:52.776Z,14.17
2019-03-25T08:40:20.926Z,8.63
2019-03-25T08:42:49.076Z,9.27
2019-03-25T08:45:17.544Z,9.83
2019-03-25T08:47:45.585Z,9.73
2019-03-25T08:50:13.835Z,9.67
2019-03-25T08:52:41.901Z,9.33
2019-03-25T08:55:10.269Z,12.87
2019-03-25T08:57:38.471Z,8.93
2019-03-25T09:00:06.820Z,11.47
2019-03-25T09:02:35.072Z,9.87
2019-03-25T09:05:03.205Z,9.83
2019-03-25T09:07:31.376Z,9.43
2019-03-25T09:09:59.427Z,8.63
2019-03-25T09:12:27.548Z,7.47
2019-03-25T09:14:55.611Z,13.73
2019-03-25T09:17:23.734Z,8.07
2019-03-25T09:19:51.886Z,9.77
2019-03-25T09:22:19.942Z,9.30
2019-03-25T09:24:49.267Z,9.70
2019-03-25T09:27:17.298Z,9.23
2019-03-25T09:29:45.363Z,8.50
2019-03-25T09:32:13.424Z,7.97
2019-03-25T09:34:41.534Z,9.70
2019-03-25T09:37:09.580Z,9.07
2019-03-25T09:39:37.743Z,7.53
2019-03-25T09:42:05.807Z,10.77
2019-03-25T09:44:33.902Z,13.10
2019-03-25T09:47:02.086Z,6.53
2019-03-25T09:49:30.189Z,11.20
2019-03-25T09:51:58.269Z,8.17
2019-03-25T09:54:26.398Z,7.43
2019-03-25T09:56:54.589Z,5.70
2019-03-25T09:59:22.664Z,6.73
2019-03-25T10:01:50.852Z,6.70
2019-03-25T10:04:20.159Z,5.70
2019-03-25T10:06:48.431Z,4.43
2019-03-25T10:09:16.620Z,5.47
2019-03-25T10:11:44.821Z,6.67
2019-03-25T10:14:12.967Z,5.83
2019-03-25T10:16:41.112Z,8.33
2019-03-25T10:19:10.391Z,4.80
2019-03-25T10:21:38.703Z,5.83
2019-03-25T10:24:06.879Z,5.97
2019-03-25T10:26:35.041Z,5.20
2019-03-25T10:29:03.215Z,7.23
2019-03-25T10:31:31.519Z,5.77
2019-03-25T10:33:59.641Z,4.93
2019-03-25T10:36:27.731Z,7.57
2019-03-25T10:38:55.894Z,4.77
2019-03-25T10:41:23.955Z,3.97
2019-03-25T10:43:52.075Z,5.43
2019-03-25T10:46:20.267Z,5.23
2019-03-25T10:48:48.437Z,4.47
2019-03-25T10:51:16.572Z,4.53
2019-03-25T10:53:45.827Z,8.17
2019-03-25T10:56:13.912Z,8.23
2019-03-25T10:58:42.140Z,4.77
2019-03-25T11:01:10.378Z,9.70
2019-03-25T11:03:38.510Z,7.93
2019-03-25T11:06:06.745Z,7.40
2019-03-25T11:08:34.911Z,4.93
2019-03-25T11:11:03.589Z,6.33
2019-03-25T11:13:31.806Z,2.77
2019-03-25T11:15:59.926Z,7.93
2019-03-25T11:18:28.028Z,2.63
2019-03-25T11:20:56.134Z,2.33
2019-03-25T11:23:24.269Z,3.57
2019-03-25T11:25:52.283Z,2.37
2019-03-25T11:28:20.439Z,3.40
2019-03-25T11:30:58.660Z,2.77
2019-03-25T11:33:26.779Z,3.43
2019-03-25T11:35:54.949Z,2.23
2019-03-25T11:38:23.032Z,5.40
2019-03-25T11:40:51.196Z,4.10
2019-03-25T11:43:19.355Z,4.87
2019-03-25T11:45:47.586Z,3.63
2019-03-25T11:48:15.688Z,3.23
2019-03-25T11:50:43.792Z,3.43
2019-03-25T11:53:11.926Z,4.87
2019-03-25T11:55:39.538Z,3.17
2019-03-25T11:58:07.669Z,5.40
2019-03-25T12:00:35.706Z,3.47
2019-03-25T12:03:04.027Z,3.67
2019-03-25T12:05:32.180Z,3.57
2019-03-25T12:08:01.451Z,2.97
2019-03-25T12:10:29.582Z,3.87
2019-03-25T12:12:57.833Z,3.57
2019-03-25T12:15:26.000Z,2.93
2019-03-25T12:17:54.011Z,3.93
2019-03-25T12:20:22.170Z,3.13
2019-03-25T12:22:50.318Z,4.23
2019-03-25T12:27:46.095Z,3.27
2019-03-25T12:30:14.363Z,3.73
2019-03-25T12:32:42.519Z,6.17
2019-03-25T12:35:10.809Z,4.67
2019-03-25T12:37:38.976Z,3.17
2019-03-25T12:40:07.966Z,3.90
2019-03-25T12:42:36.384Z,4.43
2019-03-25T12:45:04.595Z,4.87
2019-03-25T12:47:32.751Z,4.07
2019-03-25T12:50:00.891Z,3.63
2019-03-25T12:52:29.034Z,4.03
2019-03-25T12:54:57.161Z,2.97
2019-03-25T12:57:25.331Z,3.63
2019-03-25T12:59:53.431Z,3.30
2019-03-25T13:02:21.501Z,2.97
2019-03-25T13:04:49.557Z,3.10
2019-03-25T13:07:17.709Z,1.20
2019-03-25T13:09:45.751Z,2.20
2019-03-25T13:12:14.141Z,1.27
2019-03-25T13:14:42.283Z,2.67
2019-03-25T13:17:10.433Z,2.77
2019-03-25T13:19:38.572Z,3.07
2019-03-25T13:22:06.583Z,5.13
2019-03-25T13:24:34.725Z,2.23
2019-03-25T13:27:02.871Z,2.97
2019-03-25T13:29:31.098Z,2.67
2019-03-25T13:31:59.313Z,3.53
2019-03-25T13:34:27.465Z,4.23
2019-03-25T13:36:55.611Z,4.07
2019-03-25T13:39:23.796Z,3.20
2019-03-25T13:41:51.938Z,3.50
2019-03-25T13:44:20.041Z,5.13
2019-03-25T13:46:48.131Z,1.83
2019-03-25T13:49:16.271Z,7.77
2019-03-25T13:51:44.419Z,2.50
2019-03-25T13:54:12.524Z,6.83
2019-03-25T13:56:40.753Z,6.30
2019-03-25T13:59:08.862Z,4.13
2019-03-25T14:01:37.005Z,4.17
2019-03-25T14:04:05.149Z,2.30
2019-03-25T14:06:33.248Z,5.43
2019-03-25T14:09:01.427Z,3.23
2019-03-25T14:11:29.995Z,4.63
2019-03-25T14:14:00.181Z,0.70
2019-03-25T14:16:28.170Z,1.67
2019-03-25T14:18:56.390Z,1.67
2019-03-25T14:21:24.544Z,5.13
2019-03-25T14:23:52.678Z,2.10
2019-03-25T14:26:20.833Z,1.57
2019-03-25T14:28:48.903Z,2.80
2019-03-25T14:31:17.059Z,2.60
2019-03-25T14:33:45.207Z,1.87
2019-03-25T14:36:13.255Z,3.43
2019-03-25T14:38:41.450Z,3.67
2019-03-25T14:41:10.729Z,2.07
2019-03-25T14:43:38.919Z,6.03
2019-03-25T14:46:06.996Z,5.23
2019-03-25T14:48:36.300Z,3.50
2019-03-25T14:51:04.350Z,6.27
2019-03-25T14:53:32.531Z,4.10
2019-03-25T14:56:00.720Z,2.97
2019-03-25T14:58:28.882Z,3.53
2019-03-25T15:00:57.067Z,5.93
2019-03-25T15:03:25.245Z,5.47
2019-03-25T15:05:53.413Z,4.63
2019-03-25T15:08:21.520Z,4.63
2019-03-25T15:10:53.784Z,3.47
2019-03-25T15:13:19.635Z,3.13
2019-03-25T15:15:47.782Z,7.90
2019-03-25T15:18:16.233Z,5.80
2019-03-25T15:20:44.511Z,2.10
2019-03-25T15:23:12.679Z,3.17
2019-03-25T15:25:40.806Z,4.83
2019-03-25T15:28:09.030Z,6.47
2019-03-25T15:30:37.160Z,5.33
2019-03-25T15:33:05.352Z,6.33
2019-03-25T15:35:33.470Z,5.63
2019-03-25T15:38:01.828Z,6.23
2019-03-25T15:40:30.142Z,4.97
2019-03-25T15:42:58.292Z,1.70
2019-03-25T15:45:45.677Z,1.17
2019-03-25T15:48:13.643Z,3.23
2019-03-25T15:50:41.801Z,1.40
2019-03-25T15:53:09.926Z,1.63
2019-03-25T15:55:38.106Z,2.23
2019-03-25T15:58:06.464Z,2.47
2019-03-25T16:00:34.920Z,1.60
2019-03-25T16:03:03.844Z,1.77
2019-03-25T16:05:31.989Z,1.93
2019-03-25T16:08:00.077Z,2.60
2019-03-25T16:10:28.240Z,1.97
2019-03-25T16:12:56.510Z,1.87
2019-03-25T16:15:41.638Z,1.33
2019-03-25T16:18:12.104Z,1.47
2019-03-25T16:20:40.297Z,1.97
2019-03-25T16:23:08.502Z,2.50
2019-03-25T16:25:36.610Z,2.57
2019-03-25T16:28:04.759Z,5.37
2019-03-25T16:30:32.950Z,3.10
2019-03-25T16:33:01.036Z,2.90
2019-03-25T16:35:29.327Z,2.70
2019-03-25T16:37:57.421Z,1.90
2019-03-25T16:40:25.624Z,1.63
2019-03-25T16:42:53.849Z,4.10
2019-03-25T16:45:42.950Z,2.27
2019-03-25T16:48:12.067Z,3.43
2019-03-25T16:50:40.221Z,3.57
2019-03-25T16:53:10.961Z,4.60
2019-03-25T16:55:39.117Z,5.50
2019-03-25T16:58:07.192Z,2.67
2019-03-25T17:00:35.587Z,4.07
2019-03-25T17:03:03.790Z,4.70
2019-03-25T17:05:32.991Z,4.03
2019-03-25T17:08:02.472Z,6.87
2019-03-25T17:10:42.822Z,5.23
2019-03-25T17:13:10.925Z,6.20
2019-03-25T17:15:39.063Z,6.53
2019-03-25T17:18:07.225Z,4.63
2019-03-25T17:20:35.371Z,4.50
2019-03-25T17:23:03.659Z,6.07
2019-03-25T17:25:31.897Z,7.53
2019-03-25T17:28:00.099Z,6.87
2019-03-25T17:30:28.355Z,4.83
2019-03-25T17:32:56.533Z,5.70
2019-03-25T17:35:24.675Z,3.20
2019-03-25T17:37:52.847Z,5.10
2019-03-25T17:40:21.054Z,3.73
2019-03-25T17:42:49.311Z,4.00
2019-03-25T17:45:19.372Z,5.70
2019-03-25T17:47:47.532Z,3.83
2019-03-25T17:50:34.822Z,2.80
2019-03-25T17:53:03.068Z,2.77
2019-03-25T17:55:31.254Z,5.37
2019-03-25T17:57:59.507Z,5.47
2019-03-25T18:01:16.094Z,6.60
2019-03-25T18:03:44.196Z,5.73
2019-03-25T18:06:12.959Z,4.20
2019-03-25T18:08:41.479Z,4.83
2019-03-25T18:11:09.773Z,6.00
2019-03-25T18:13:37.965Z,6.93
2019-03-25T18:16:06.118Z,8.67
2019-03-25T18:18:34.249Z,5.57
2019-03-25T18:21:02.348Z,6.90
2019-03-25T18:23:30.608Z,5.50
2019-03-25T18:25:58.873Z,5.93
2019-03-25T18:28:27.036Z,7.13
2019-03-25T18:30:55.214Z,8.23
2019-03-25T18:33:23.384Z,7.47
2019-03-25T18:35:51.554Z,5.37
2019-03-25T18:38:19.844Z,8.07
2019-03-25T18:40:48.430Z,4.30
2019-03-25T18:43:16.905Z,4.97
2019-03-25T18:45:45.962Z,9.87
2019-03-25T18:48:15.009Z,7.67
2019-03-25T18:50:46.325Z,8.67
2019-03-25T18:53:17.661Z,6.47
2019-03-25T18:55:45.946Z,7.23
2019-03-25T18:58:14.515Z,9.33
2019-03-25T19:00:46.535Z,8.87
2019-03-25T19:03:15.541Z,6.90
2019-03-25T19:05:47.169Z,7.77
2019-03-25T19:08:15.517Z,10.17
2019-03-25T19:10:45.372Z,7.00
2019-03-25T19:13:13.649Z,10.00
2019-03-25T19:15:42.017Z,9.97
2019-03-25T19:18:10.191Z,10.47
2019-03-25T19:20:38.374Z,7.67
2019-03-25T19:23:06.976Z,9.87
2019-03-25T19:25:36.393Z,6.67
2019-03-25T19:28:04.518Z,8.87
2019-03-25T19:30:34.750Z,7.23
2019-03-25T19:33:02.967Z,8.03
2019-03-25T19:35:31.431Z,8.60
2019-03-25T19:38:00.171Z,7.37
2019-03-25T19:40:28.952Z,7.53
2019-03-25T19:42:57.447Z,6.57
2019-03-25T19:45:25.689Z,5.47
2019-03-25T19:47:55.065Z,9.50
2019-03-25T19:50:23.339Z,7.53
2019-03-25T19:52:51.514Z,7.93
2019-03-25T19:55:19.765Z,6.70
2019-03-25T19:57:48.269Z,8.03
2019-03-25T20:00:21.051Z,8.93
2019-03-25T20:02:49.421Z,9.50
2019-03-25T20:05:17.725Z,10.00
2019-03-25T20:07:46.071Z,10.73
2019-03-25T20:10:27.796Z,7.43
2019-03-25T20:12:56.759Z,10.23
2019-03-25T20:15:25.125Z,7.23
2019-03-25T20:17:53.263Z,9.13
2019-03-25T20:20:23.918Z,8.50
2019-03-25T20:23:04.451Z,8.37
2019-03-25T20:25:32.730Z,11.80
2019-03-25T20:28:00.858Z,11.93
2019-03-25T20:30:29.094Z,15.07
2019-03-25T20:32:57.400Z,12.13
2019-03-25T20:35:25.534Z,8.53
2019-03-25T20:37:53.743Z,10.77
2019-03-25T20:40:21.902Z,12.90
2019-03-25T20:42:50.154Z,10.70
2019-03-25T20:45:18.666Z,15.20
2019-03-25T20:47:46.788Z,11.00
2019-03-25T20:50:17.955Z,10.20
2019-03-25T20:52:46.080Z,14.27
2019-03-25T20:55:16.301Z,11.73
2019-03-25T20:57:44.478Z,12.77
2019-03-25T21:00:13.276Z,17.57
2019-03-25T21:02:45.229Z,11.17
2019-03-25T21:05:12.939Z,15.30
2019-03-25T21:07:41.334Z,9.97
2019-03-25T21:10:09.782Z,14.20
2019-03-25T21:12:40.058Z,12.93
2019-03-25T21:15:08.198Z,12.73
2019-03-25T21:17:36.464Z,12.23
2019-03-25T21:20:06.019Z,12.67
2019-03-25T21:22:34.100Z,11.23
2019-03-25T21:25:02.290Z,14.33
2019-03-25T21:27:30.454Z,10.63
2019-03-25T21:29:58.684Z,12.50
2019-03-25T21:32:31.239Z,11.63
2019-03-25T21:34:59.376Z,17.17
2019-03-25T21:37:27.676Z,10.67
2019-03-25T21:39:55.805Z,10.70
2019-03-25T21:42:24.035Z,12.13
2019-03-25T21:44:53.980Z,12.57
2019-03-25T21:47:22.150Z,16.60
2019-03-25T21:49:50.390Z,12.90
2019-03-25T21:52:18.463Z,12.43
2019-03-25T21:54:46.701Z,16.07
2019-03-25T21:57:14.942Z,16.83
2019-03-25T21:59:42.972Z,14.03
2019-03-25T22:02:11.046Z,12.77
2019-03-25T22:04:39.224Z,16.97
2019-03-25T22:07:07.478Z,13.77
2019-03-25T22:09:35.667Z,12.80
2019-03-25T22:12:03.710Z,12.40
2019-03-25T22:14:31.947Z,14.60
2019-03-25T22:17:00.071Z,15.97
2019-03-25T22:19:28.283Z,13.70
2019-03-25T22:21:56.447Z,14.27
2019-03-25T22:24:24.480Z,14.33
2019-03-25T22:26:52.699Z,20.87
2019-03-25T22:29:20.900Z,12.10
2019-03-25T22:31:49.143Z,13.57
2019-03-25T22:34:17.354Z,11.80
2019-03-25T22:36:46.349Z,13.63
2019-03-25T22:39:14.501Z,19.17
2019-03-25T22:41:42.625Z,17.40
2019-03-25T22:44:10.789Z,19.47
2019-03-25T22:46:38.942Z,18.10
2019-03-25T22:49:07.054Z,15.73
2019-03-25T22:51:35.215Z,21.47
2019-03-25T22:54:03.389Z,15.30
2019-03-25T22:56:31.568Z,17.50
2019-03-25T22:58:59.682Z,19.67
2019-03-25T23:01:27.931Z,19.53
2019-03-25T23:03:55.929Z,19.37
2019-03-25T23:06:24.065Z,18.47
2019-03-25T23:08:52.271Z,23.33
2019-03-25T23:11:20.349Z,22.20
2019-03-25T23:13:48.511Z,24.87
2019-03-25T23:16:16.609Z,24.20
2019-03-25T23:18:44.767Z,23.40
2019-03-25T23:21:12.969Z,22.93
2019-03-25T23:23:41.062Z,20.07
2019-03-25T23:26:09.071Z,21.27
2019-03-25T23:28:37.153Z,28.20
2019-03-25T23:31:05.191Z,23.90
2019-03-25T23:33:33.291Z,27.07
2019-03-25T23:36:01.460Z,26.87
2019-03-25T23:38:29.513Z,27.73
2019-03-25T23:40:57.581Z,28.53
2019-03-25T23:43:25.631Z,20.13
2019-03-25T23:45:53.675Z,31.87
2019-03-25T23:48:21.810Z,27.07
2019-03-25T23:50:49.847Z,21.97
2019-03-25T23:53:18.011Z,25.77
2019-03-25T23:55:46.044Z,24.33
2019-03-25T23:58:14.213Z,22.07
